createdAt,value
2018-01-27T00:00:19.679Z,31.90
2018-01-27T00:02:47.917Z,33.07
2018-01-27T00:05:15.389Z,35.80
2018-01-27T00:07:43.635Z,37.67
2018-01-27T00:10:11.142Z,33.03
2018-01-27T00:12:39.384Z,32.23
2018-01-27T00:15:06.886Z,38.27
2018-01-27T00:17:34.362Z,31.43
2018-01-27T00:20:02.015Z,32.20
2018-01-27T00:22:29.490Z,38.73
2018-01-27T00:24:56.986Z,31.53
2018-01-27T00:27:25.234Z,33.77
2018-01-27T00:29:52.721Z,34.50
2018-01-27T00:32:20.962Z,29.37
2018-01-27T00:34:48.437Z,35.67
2018-01-27T00:37:16.706Z,33.13
2018-01-27T00:39:44.202Z,34.93
2018-01-27T00:42:11.670Z,31.73
2018-01-27T00:44:39.138Z,32.70
2018-01-27T00:47:06.611Z,29.00
2018-01-27T00:49:34.074Z,34.33
2018-01-27T00:52:03.773Z,31.67
2018-01-27T00:54:31.251Z,33.03
2018-01-27T00:56:58.738Z,30.03
2018-01-27T00:59:26.244Z,35.40
2018-01-27T01:01:53.732Z,32.90
2018-01-27T01:04:21.975Z,31.37
2018-01-27T01:06:49.435Z,31.27
2018-01-27T01:09:16.922Z,33.47
2018-01-27T01:11:45.154Z,31.00
2018-01-27T01:14:12.642Z,29.87
2018-01-27T01:25:16.472Z,29.87
2018-01-27T01:27:43.944Z,29.67
2018-01-27T01:30:11.425Z,29.47
2018-01-27T01:32:39.679Z,36.30
2018-01-27T01:35:07.168Z,31.20
2018-01-27T01:37:34.636Z,34.77
2018-01-27T01:40:02.103Z,31.20
2018-01-27T01:42:35.433Z,31.67
2018-01-27T01:45:02.960Z,33.20
2018-01-27T01:47:30.471Z,32.40
2018-01-27T01:49:58.727Z,36.30
2018-01-27T01:52:26.244Z,28.43
2018-01-27T01:54:53.787Z,35.33
2018-01-27T01:57:21.311Z,30.33
2018-01-27T01:59:49.549Z,39.10
2018-01-27T02:02:17.038Z,34.93
2018-01-27T02:04:45.345Z,37.33
2018-01-27T02:07:12.867Z,31.67
2018-01-27T02:09:41.099Z,36.03
2018-01-27T02:12:08.592Z,33.63
2018-01-27T02:14:36.070Z,35.03
2018-01-27T02:17:04.329Z,35.37
2018-01-27T02:19:32.563Z,28.90
2018-01-27T02:22:00.051Z,31.37
2018-01-27T02:24:27.531Z,28.73
2018-01-27T02:26:55.013Z,32.43
2018-01-27T02:29:22.493Z,30.53
2018-01-27T02:31:49.960Z,30.33
2018-01-27T02:34:17.456Z,32.57
2018-01-27T02:36:44.936Z,31.90
2018-01-27T02:39:12.415Z,30.70
2018-01-27T02:41:39.892Z,30.77
2018-01-27T02:44:07.379Z,31.03
2018-01-27T02:46:34.900Z,37.70
2018-01-27T02:49:02.527Z,32.97
2018-01-27T02:51:30.007Z,33.93
2018-01-27T03:02:32.337Z,32.90
2018-01-27T03:05:01.314Z,32.90
2018-01-27T03:07:28.786Z,34.93
2018-01-27T03:09:56.263Z,31.50
2018-01-27T03:12:24.509Z,30.10
2018-01-27T03:14:51.973Z,31.83
2018-01-27T03:17:19.498Z,31.60
2018-01-27T03:19:46.987Z,35.50
2018-01-27T03:22:14.455Z,32.47
2018-01-27T03:24:42.737Z,30.57
2018-01-27T03:27:10.992Z,29.10
2018-01-27T03:29:38.455Z,30.60
2018-01-27T03:32:06.715Z,31.00
2018-01-27T03:34:34.183Z,34.77
2018-01-27T03:37:01.666Z,33.13
2018-01-27T03:39:29.158Z,28.47
2018-01-27T03:41:56.625Z,29.97
2018-01-27T03:44:24.124Z,33.87
2018-01-27T03:46:52.357Z,29.13
2018-01-27T03:49:19.868Z,38.17
2018-01-27T03:51:47.347Z,35.93
2018-01-27T03:54:14.860Z,31.30
2018-01-27T03:56:43.200Z,32.80
2018-01-27T03:59:10.808Z,26.87
2018-01-27T04:01:38.477Z,32.37
2018-01-27T04:04:05.940Z,31.77
2018-01-27T04:06:33.430Z,30.03
2018-01-27T04:09:00.907Z,35.37
2018-01-27T04:11:28.389Z,32.03
2018-01-27T04:13:55.859Z,31.63
2018-01-27T04:16:23.352Z,29.20
2018-01-27T04:18:50.817Z,32.97
2018-01-27T04:21:18.310Z,37.37
2018-01-27T04:23:45.815Z,29.43
2018-01-27T04:26:13.303Z,27.67
2018-01-27T04:28:40.858Z,28.10
2018-01-27T04:31:08.345Z,32.07
2018-01-27T04:33:35.822Z,28.93
2018-01-27T04:36:03.339Z,30.37
2018-01-27T04:38:31.627Z,31.67
2018-01-27T04:40:59.857Z,28.90
2018-01-27T04:43:27.328Z,37.00
2018-01-27T04:45:54.833Z,33.23
2018-01-27T04:48:22.295Z,26.70
2018-01-27T04:50:49.787Z,31.07
2018-01-27T04:53:17.288Z,29.93
2018-01-27T04:55:44.761Z,29.37
2018-01-27T04:58:12.260Z,30.47
2018-01-27T05:00:39.721Z,30.93
2018-01-27T05:03:08.709Z,30.40
2018-01-27T05:05:36.973Z,33.77
2018-01-27T05:08:04.455Z,33.50
2018-01-27T05:10:32.726Z,31.07
2018-01-27T05:13:00.202Z,28.20
2018-01-27T05:15:27.655Z,26.90
2018-01-27T05:17:55.134Z,31.33
2018-01-27T05:20:22.667Z,27.20
2018-01-27T05:22:50.123Z,25.40
2018-01-27T05:25:17.610Z,33.80
2018-01-27T05:27:45.097Z,27.90
2018-01-27T05:30:12.573Z,30.87
2018-01-27T05:32:40.826Z,29.57
2018-01-27T05:35:08.314Z,31.83
2018-01-27T05:37:36.575Z,27.77
2018-01-27T05:40:04.046Z,33.57
2018-01-27T05:42:32.297Z,27.73
2018-01-27T05:44:59.794Z,29.07
2018-01-27T05:47:27.250Z,23.63
2018-01-27T05:49:54.765Z,26.83
2018-01-27T05:52:22.229Z,33.40
2018-01-27T05:54:50.487Z,27.17
2018-01-27T05:57:17.958Z,30.97
2018-01-27T05:59:46.188Z,41.07
2018-01-27T06:02:13.666Z,34.27
2018-01-27T06:04:41.934Z,35.17
2018-01-27T06:07:09.404Z,32.83
2018-01-27T06:09:36.877Z,31.27
2018-01-27T06:12:05.133Z,34.43
2018-01-27T06:14:32.604Z,27.23
2018-01-27T06:17:00.846Z,31.83
2018-01-27T06:19:28.324Z,28.50
2018-01-27T06:21:55.806Z,31.03
2018-01-27T06:24:23.288Z,32.70
2018-01-27T06:26:50.785Z,34.70
2018-01-27T06:29:18.251Z,31.47
2018-01-27T06:31:46.530Z,40.97
2018-01-27T06:34:14.860Z,51.67
2018-01-27T06:36:42.328Z,62.27
2018-01-27T06:39:09.835Z,62.70
2018-01-27T06:41:38.102Z,66.53
2018-01-27T06:44:06.355Z,67.17
2018-01-27T06:46:33.821Z,68.57
2018-01-27T06:49:02.266Z,70.97
2018-01-27T06:51:29.750Z,66.93
2018-01-27T06:53:57.245Z,70.57
2018-01-27T06:56:24.731Z,72.57
2018-01-27T06:58:52.208Z,61.73
2018-01-27T07:01:19.675Z,69.17
2018-01-27T07:03:47.185Z,70.93
2018-01-27T07:06:14.698Z,72.10
2018-01-27T07:08:42.160Z,73.07
2018-01-27T07:11:10.424Z,77.97
2018-01-27T07:13:39.774Z,79.03
2018-01-27T07:16:07.256Z,88.83
2018-01-27T07:18:34.735Z,82.80
2018-01-27T07:21:02.218Z,87.63
2018-01-27T07:23:29.712Z,97.77
2018-01-27T07:25:57.193Z,90.83
2018-01-27T07:28:24.664Z,92.80
2018-01-27T07:30:52.926Z,98.63
2018-01-27T07:33:20.391Z,101.47
2018-01-27T07:35:48.653Z,104.40
2018-01-27T07:38:16.141Z,105.90
2018-01-27T07:40:43.637Z,122.57
2018-01-27T07:43:11.129Z,108.53
2018-01-27T07:45:39.378Z,132.07
2018-01-27T07:48:06.909Z,119.47
2018-01-27T07:50:34.419Z,105.00
2018-01-27T07:53:01.890Z,105.23
2018-01-27T07:55:29.479Z,119.97
2018-01-27T07:57:56.957Z,109.40
2018-01-27T08:00:24.450Z,110.63
2018-01-27T08:02:51.943Z,106.30
2018-01-27T08:05:19.427Z,108.83
2018-01-27T08:07:46.921Z,113.80
2018-01-27T08:10:15.166Z,107.17
2018-01-27T08:12:42.651Z,108.17
2018-01-27T08:15:10.887Z,111.87
2018-01-27T08:17:38.366Z,112.40
2018-01-27T08:20:07.414Z,122.27
2018-01-27T08:22:34.906Z,110.40
2018-01-27T08:25:02.390Z,111.80
2018-01-27T08:27:30.698Z,109.83
2018-01-27T08:29:58.166Z,124.43
2018-01-27T08:32:25.650Z,124.43
2018-01-27T08:34:53.139Z,115.20
2018-01-27T08:37:21.380Z,120.60
2018-01-27T08:39:48.865Z,110.23
2018-01-27T08:42:16.334Z,105.23
2018-01-27T08:44:43.854Z,103.10
2018-01-27T08:47:11.322Z,113.27
2018-01-27T08:49:38.797Z,110.27
2018-01-27T08:52:07.027Z,108.57
2018-01-27T08:54:34.510Z,117.67
2018-01-27T08:57:02.006Z,112.70
2018-01-27T08:59:29.492Z,120.03
2018-01-27T09:01:56.994Z,121.17
2018-01-27T09:04:25.218Z,136.17
2018-01-27T09:06:52.710Z,120.13
2018-01-27T09:09:20.954Z,133.57
2018-01-27T09:11:48.449Z,110.93
2018-01-27T09:14:16.722Z,127.37
2018-01-27T09:16:44.956Z,120.33
2018-01-27T09:19:12.431Z,107.70
2018-01-27T09:21:39.929Z,107.80
2018-01-27T09:24:07.426Z,99.40
2018-01-27T09:26:34.901Z,99.13
2018-01-27T09:29:02.433Z,99.00
2018-01-27T09:31:29.915Z,97.57
2018-01-27T09:33:57.410Z,99.00
2018-01-27T09:36:24.953Z,100.53
2018-01-27T09:38:53.204Z,91.43
2018-01-27T09:41:20.682Z,96.67
2018-01-27T09:43:48.924Z,94.33
2018-01-27T09:46:16.392Z,83.73
2018-01-27T09:48:43.890Z,83.63
2018-01-27T09:51:11.357Z,76.37
2018-01-27T09:53:38.812Z,81.07
2018-01-27T09:56:06.299Z,74.07
2018-01-27T09:58:33.771Z,75.00
2018-01-27T10:01:01.244Z,74.27
2018-01-27T10:03:28.734Z,73.50
2018-01-27T10:05:56.232Z,68.13
2018-01-27T10:08:23.701Z,80.63
2018-01-27T10:10:51.189Z,75.50
2018-01-27T10:13:18.813Z,84.23
2018-01-27T10:15:46.309Z,93.67
2018-01-27T10:18:13.775Z,88.13
2018-01-27T10:20:41.329Z,79.00
2018-01-27T10:23:08.828Z,88.57
2018-01-27T10:25:36.293Z,90.70
2018-01-27T10:28:03.775Z,80.87
2018-01-27T10:30:31.251Z,87.73
2018-01-27T10:32:59.176Z,72.10
2018-01-27T10:35:26.659Z,73.53
2018-01-27T10:37:54.181Z,69.53
2018-01-27T10:40:21.651Z,61.37
2018-01-27T10:42:49.947Z,62.83
2018-01-27T10:45:17.429Z,58.47
2018-01-27T10:47:44.930Z,61.67
2018-01-27T10:50:12.390Z,60.37
2018-01-27T10:52:39.886Z,54.43
2018-01-27T10:55:07.443Z,53.43
2018-01-27T10:57:34.937Z,59.13
2018-01-27T11:00:02.443Z,63.07
2018-01-27T11:02:30.680Z,51.60
2018-01-27T11:04:58.186Z,50.70
2018-01-27T11:07:25.726Z,52.43
2018-01-27T11:09:54.023Z,47.90
2018-01-27T11:12:21.540Z,46.73
2018-01-27T11:14:49.037Z,47.97
2018-01-27T11:17:16.534Z,43.10
2018-01-27T11:19:44.005Z,45.80
2018-01-27T11:22:18.582Z,43.47
2018-01-27T11:24:46.072Z,40.17
2018-01-27T11:27:13.547Z,45.40
2018-01-27T11:29:41.799Z,32.70
2018-01-27T11:32:09.283Z,32.67
2018-01-27T11:34:37.509Z,36.00
2018-01-27T11:37:04.987Z,34.33
2018-01-27T11:39:32.493Z,34.47
2018-01-27T11:42:00.107Z,32.17
2018-01-27T11:44:27.590Z,33.83
2018-01-27T11:46:55.831Z,43.07
2018-01-27T11:49:24.091Z,42.63
2018-01-27T11:51:51.696Z,41.77
2018-01-27T11:54:19.206Z,49.40
2018-01-27T11:56:46.683Z,46.90
2018-01-27T11:59:14.161Z,44.50
2018-01-27T12:01:42.402Z,45.77
2018-01-27T12:04:09.892Z,42.07
2018-01-27T12:06:38.132Z,38.83
2018-01-27T12:09:05.626Z,35.50
2018-01-27T12:11:33.105Z,38.30
2018-01-27T12:14:00.588Z,31.43
2018-01-27T12:16:28.092Z,33.13
2018-01-27T12:18:56.360Z,37.90
2018-01-27T12:21:24.617Z,43.00
2018-01-27T12:23:52.107Z,45.37
2018-01-27T12:26:19.595Z,41.53
2018-01-27T12:28:47.102Z,45.80
2018-01-27T12:31:15.355Z,42.23
2018-01-27T12:33:42.891Z,40.90
2018-01-27T12:36:10.374Z,43.97
2018-01-27T12:38:38.628Z,40.40
2018-01-27T12:41:06.144Z,43.20
2018-01-27T12:43:33.737Z,41.97
2018-01-27T12:46:01.221Z,40.10
2018-01-27T12:48:28.697Z,36.13
2018-01-27T12:50:56.943Z,35.83
2018-01-27T12:53:24.482Z,37.87
2018-01-27T12:55:51.954Z,35.73
2018-01-27T12:58:19.430Z,36.33
2018-01-27T13:00:47.669Z,35.97
2018-01-27T13:03:15.167Z,34.03
2018-01-27T13:05:43.464Z,33.80
2018-01-27T13:08:10.947Z,33.77
2018-01-27T13:10:38.434Z,35.73
2018-01-27T13:13:05.941Z,30.73
2018-01-27T13:15:33.421Z,33.30
2018-01-27T13:18:00.916Z,28.70
2018-01-27T13:20:29.160Z,20.10
2018-01-27T13:22:56.637Z,23.07
2018-01-27T13:25:24.211Z,22.60
2018-01-27T13:27:52.674Z,19.13
2018-01-27T13:30:20.196Z,20.13
2018-01-27T13:32:47.701Z,19.73
2018-01-27T13:35:15.972Z,20.50
2018-01-27T13:37:43.469Z,19.03
2018-01-27T13:40:10.929Z,22.40
2018-01-27T13:42:38.425Z,21.53
2018-01-27T13:45:06.092Z,17.17
2018-01-27T13:47:33.577Z,17.03
2018-01-27T13:50:01.076Z,17.97
2018-01-27T13:52:28.554Z,19.30
2018-01-27T13:54:56.077Z,20.87
2018-01-27T13:57:23.556Z,18.57
2018-01-27T13:59:51.058Z,17.97
2018-01-27T14:02:18.555Z,20.90
2018-01-27T14:04:46.190Z,17.80
2018-01-27T14:07:13.690Z,18.73
2018-01-27T14:09:41.185Z,17.10
2018-01-27T14:12:09.438Z,17.47
2018-01-27T14:14:36.922Z,15.80
2018-01-27T14:17:04.440Z,15.07
2018-01-27T14:19:31.926Z,17.60
2018-01-27T14:22:00.376Z,16.70
2018-01-27T14:24:27.860Z,15.90
2018-01-27T14:26:56.130Z,16.27
2018-01-27T14:29:24.385Z,15.40
2018-01-27T14:31:51.899Z,14.23
2018-01-27T14:34:19.389Z,17.37
2018-01-27T14:36:46.868Z,20.13
2018-01-27T14:39:15.118Z,11.33
2018-01-27T14:41:42.613Z,14.40
2018-01-27T14:44:10.103Z,15.40
2018-01-27T14:46:37.622Z,14.50
2018-01-27T14:49:05.874Z,16.07
2018-01-27T14:51:34.157Z,13.47
2018-01-27T14:54:02.433Z,15.13
2018-01-27T14:56:30.696Z,16.13
2018-01-27T14:58:59.777Z,14.87
2018-01-27T15:01:27.246Z,15.77
2018-01-27T15:03:55.559Z,12.20
2018-01-27T15:06:23.037Z,11.37
2018-01-27T15:08:50.522Z,13.60
2018-01-27T15:11:18.009Z,17.60
2018-01-27T15:13:46.248Z,11.97
2018-01-27T15:16:13.761Z,15.27
2018-01-27T15:18:41.244Z,12.33
2018-01-27T15:21:08.730Z,13.10
2018-01-27T15:23:36.242Z,13.23
2018-01-27T15:26:03.786Z,16.60
2018-01-27T15:28:31.266Z,19.60
2018-01-27T15:30:58.828Z,14.47
2018-01-27T15:33:26.304Z,16.27
2018-01-27T15:35:53.798Z,19.83
2018-01-27T15:38:21.306Z,20.63
2018-01-27T15:40:48.782Z,21.07
2018-01-27T15:43:16.267Z,20.83
2018-01-27T15:45:43.756Z,22.33
2018-01-27T15:48:11.244Z,21.57
2018-01-27T15:50:39.498Z,22.80
2018-01-27T15:53:06.987Z,23.73
2018-01-27T15:55:35.226Z,21.13
2018-01-27T15:58:02.716Z,17.67
2018-01-27T16:00:30.189Z,20.43
2018-01-27T16:02:57.694Z,21.57
2018-01-27T16:05:25.192Z,22.30
2018-01-27T16:07:53.443Z,19.40
2018-01-27T16:10:20.935Z,19.90
2018-01-27T16:12:48.438Z,25.93
2018-01-27T16:15:15.911Z,21.83
2018-01-27T16:17:43.419Z,22.63
2018-01-27T16:20:10.892Z,20.83
2018-01-27T16:22:38.388Z,18.53
2018-01-27T16:25:05.864Z,20.17
2018-01-27T16:27:34.123Z,22.80
2018-01-27T16:30:02.367Z,21.77
2018-01-27T16:32:29.875Z,22.27
2018-01-27T16:34:58.299Z,21.87
2018-01-27T16:37:25.786Z,21.23
2018-01-27T16:39:54.027Z,22.47
2018-01-27T16:42:21.519Z,23.10
2018-01-27T16:44:48.990Z,24.27
2018-01-27T16:47:17.255Z,26.23
2018-01-27T16:49:45.536Z,21.27
2018-01-27T16:52:14.896Z,20.97
2018-01-27T16:54:42.388Z,22.07
2018-01-27T16:57:10.648Z,22.93
2018-01-27T16:59:38.111Z,21.30
2018-01-27T17:02:06.387Z,23.90
2018-01-27T17:04:34.642Z,21.27
2018-01-27T17:07:02.146Z,22.23
2018-01-27T17:09:29.652Z,25.23
2018-01-27T17:11:57.152Z,25.43
2018-01-27T17:14:24.634Z,25.23
2018-01-27T17:16:52.115Z,23.93
2018-01-27T17:19:19.608Z,23.00
2018-01-27T17:21:47.942Z,23.30
2018-01-27T17:24:15.437Z,24.87
2018-01-27T17:26:43.702Z,21.63
2018-01-27T17:29:11.178Z,18.90
2018-01-27T17:31:38.667Z,24.47
2018-01-27T17:34:06.173Z,22.97
2018-01-27T17:36:34.437Z,22.37
2018-01-27T17:39:01.923Z,25.50
2018-01-27T17:41:29.505Z,24.33
2018-01-27T17:43:56.969Z,23.10
2018-01-27T17:46:24.478Z,23.37
2018-01-27T17:48:52.743Z,22.87
2018-01-27T17:51:20.206Z,20.77
2018-01-27T17:53:48.477Z,22.13
2018-01-27T17:56:16.739Z,24.43
2018-01-27T17:58:44.252Z,18.93
2018-01-27T18:01:11.731Z,19.07
2018-01-27T18:03:39.211Z,22.03
2018-01-27T18:06:06.692Z,18.63
2018-01-27T18:08:34.933Z,18.63
2018-01-27T18:11:02.448Z,21.37
2018-01-27T18:13:29.929Z,21.63
2018-01-27T18:15:57.433Z,21.30
2018-01-27T18:18:25.732Z,20.33
2018-01-27T18:20:53.212Z,22.60
2018-01-27T18:23:20.691Z,19.67
2018-01-27T18:25:48.182Z,18.93
2018-01-27T18:28:15.693Z,18.57
2018-01-27T18:30:43.197Z,20.53
2018-01-27T18:33:10.681Z,20.40
2018-01-27T18:35:38.159Z,15.33
2018-01-27T18:38:05.662Z,19.80
2018-01-27T18:40:33.129Z,16.83
2018-01-27T18:43:00.632Z,20.40
2018-01-27T18:45:28.113Z,20.13
2018-01-27T18:47:56.378Z,13.97
2018-01-27T18:50:23.848Z,14.97
2018-01-27T18:52:52.101Z,16.40
2018-01-27T18:55:19.597Z,19.23
2018-01-27T18:57:47.076Z,15.17
2018-01-27T19:00:14.579Z,16.47
2018-01-27T19:02:42.060Z,18.47
2018-01-27T19:05:10.311Z,14.80
2018-01-27T19:07:38.569Z,17.03
2018-01-27T19:10:06.056Z,12.53
2018-01-27T19:12:33.524Z,16.30
2018-01-27T19:15:01.003Z,14.73
2018-01-27T19:17:28.507Z,17.20
2018-01-27T19:19:56.005Z,11.77
2018-01-27T19:22:23.496Z,15.10
2018-01-27T19:24:50.972Z,11.97
2018-01-27T19:27:18.466Z,11.87
2018-01-27T19:29:46.028Z,13.97
2018-01-27T19:32:13.524Z,14.87
2018-01-27T19:34:41.006Z,14.17
2018-01-27T19:37:09.265Z,14.50
2018-01-27T19:39:36.801Z,10.47
2018-01-27T19:42:04.318Z,10.70
2018-01-27T19:44:31.793Z,15.23
2018-01-27T19:46:59.880Z,13.60
2018-01-27T19:49:27.348Z,14.10
2018-01-27T19:51:54.843Z,16.40
2018-01-27T19:54:23.151Z,11.67
2018-01-27T19:56:50.673Z,12.33
2018-01-27T19:59:18.929Z,11.87
2018-01-27T20:01:46.409Z,11.03
2018-01-27T20:04:13.919Z,11.20
2018-01-27T20:06:41.410Z,11.63
2018-01-27T20:09:09.671Z,13.80
2018-01-27T20:11:37.151Z,16.30
2018-01-27T20:14:05.408Z,11.50
2018-01-27T20:16:33.653Z,12.17
2018-01-27T20:19:01.125Z,12.73
2018-01-27T20:21:30.125Z,12.37
2018-01-27T20:23:57.608Z,13.80
2018-01-27T20:26:25.083Z,15.57
2018-01-27T20:28:52.560Z,13.57
2018-01-27T20:31:20.060Z,12.53
2018-01-27T20:33:48.303Z,12.93
2018-01-27T20:36:15.786Z,8.37
2018-01-27T20:38:44.031Z,11.07
2018-01-27T20:41:11.535Z,10.57
2018-01-27T20:43:39.015Z,10.90
2018-01-27T20:46:06.497Z,12.80
2018-01-27T20:48:33.980Z,10.17
2018-01-27T20:51:01.469Z,14.33
2018-01-27T20:53:28.947Z,15.87
2018-01-27T20:55:56.442Z,13.83
2018-01-27T20:58:23.963Z,15.50
2018-01-27T21:00:51.447Z,12.70
2018-01-27T21:03:19.009Z,12.53
2018-01-27T21:05:46.566Z,14.40
2018-01-27T21:08:14.023Z,14.50
2018-01-27T21:10:41.504Z,14.43
2018-01-27T21:13:09.760Z,12.53
2018-01-27T21:15:37.243Z,10.63
2018-01-27T21:18:04.838Z,17.17
2018-01-27T21:20:32.326Z,13.03
2018-01-27T21:22:59.814Z,15.03
2018-01-27T21:25:27.543Z,14.93
2018-01-27T21:27:55.030Z,16.33
2018-01-27T21:30:22.508Z,13.87
2018-01-27T21:32:49.998Z,13.00
2018-01-27T21:35:17.482Z,14.40
2018-01-27T21:37:44.968Z,14.77
2018-01-27T21:40:12.467Z,15.90
2018-01-27T21:42:39.985Z,12.43
2018-01-27T21:45:08.530Z,17.17
2018-01-27T21:47:36.804Z,19.67
2018-01-27T21:50:05.050Z,16.60
2018-01-27T21:52:32.853Z,15.27
2018-01-27T21:55:01.354Z,18.00
2018-01-27T21:57:28.832Z,15.60
2018-01-27T21:59:56.395Z,21.20
2018-01-27T22:02:23.864Z,16.23
2018-01-27T22:04:51.365Z,17.57
2018-01-27T22:07:19.606Z,14.77
2018-01-27T22:09:47.087Z,14.70
2018-01-27T22:12:15.322Z,17.93
2018-01-27T22:14:42.825Z,12.93
2018-01-27T22:17:10.397Z,15.37
2018-01-27T22:19:37.874Z,14.60
2018-01-27T22:22:05.364Z,18.33
2018-01-27T22:24:32.856Z,16.07
2018-01-27T22:27:00.404Z,13.97
2018-01-27T22:29:27.884Z,11.43
2018-01-27T22:31:55.407Z,16.43
2018-01-27T22:34:23.650Z,17.73
2018-01-27T22:36:51.149Z,14.60
2018-01-27T22:39:19.402Z,15.17
2018-01-27T22:41:47.934Z,15.43
2018-01-27T22:44:15.416Z,12.93
2018-01-27T22:46:42.892Z,19.20
2018-01-27T22:49:11.114Z,11.93
2018-01-27T22:51:38.628Z,15.43
2018-01-27T22:54:06.910Z,13.43
2018-01-27T22:56:35.197Z,12.67
2018-01-27T22:59:02.683Z,12.13
2018-01-27T23:01:30.170Z,10.80
2018-01-27T23:03:57.651Z,8.47
2018-01-27T23:06:25.997Z,9.67
2018-01-27T23:08:54.259Z,12.60
2018-01-27T23:11:21.800Z,8.43
2018-01-27T23:13:49.272Z,6.47
2018-01-27T23:16:16.720Z,7.60
2018-01-27T23:18:44.195Z,11.47
2018-01-27T23:21:11.671Z,6.13
2018-01-27T23:23:39.142Z,7.47
2018-01-27T23:26:07.362Z,4.80
2018-01-27T23:28:34.835Z,9.03
2018-01-27T23:31:02.296Z,11.47
2018-01-27T23:33:29.884Z,7.33
2018-01-27T23:35:58.161Z,5.70
2018-01-27T23:38:25.653Z,8.63
2018-01-27T23:40:53.152Z,5.17
2018-01-27T23:43:20.680Z,7.00
2018-01-27T23:45:48.149Z,6.23
2018-01-27T23:48:15.677Z,6.97
2018-01-27T23:50:43.150Z,8.17
2018-01-27T23:53:10.616Z,6.30
2018-01-27T23:55:38.103Z,6.93
2018-01-27T23:58:05.558Z,10.10
